CheckWX is a tool to help pilots better visualize weather data.  It is not intended as a substitute for an official pre-flight weather briefing.

14:15:22 UTC

KPPF METAR
Tri-City Airport
Parsons, Kansas, USA
Current

23 mins ago

KPPF 221352Z AUTO 19008G16KT 10SM OVC034 19/13 A2998 RMK AO2 SLP144 T01890133
Observed
Apr-22 @ 13:52 UTC
Wind
  • 190° at 8 KTS
  • Gusting to 16 KTS
Visibility
10 SM
Flight Rules
VFR
Cloud Levels
  • Overcast at 3,400' AGL
Temperature
19°C / 66°F
Dewpoint
13°C / 55°F
Humidity
68%
Altimeter
29.98" Hg
Pressure
1015.22 hPa
Previous

1 hour ago

KPPF 221252Z AUTO 18007KT 10SM OVC035 18/13 A2997 RMK AO2 SLP142 T01830128
Observed
Apr-22 @ 12:52 UTC
Wind
  • 180° at 7 KTS
Visibility
10 SM
Flight Rules
VFR
Cloud Levels
  • Overcast at 3,500' AGL
Temperature
18°C / 64°F
Dewpoint
13°C / 55°F
Humidity
73%
Altimeter
29.97" Hg
Pressure
1014.92 hPa
Previous

2 hours ago

KPPF 221152Z AUTO 18006KT 10SM BKN042 18/13 A2996 RMK AO2 SLP136 T01830128 10200 20172 51025
Observed
Apr-22 @ 11:52 UTC
Wind
  • 180° at 6 KTS
Visibility
10 SM
Flight Rules
VFR
Cloud Levels
  • Broken at 4,200' AGL
Temperature
18°C / 64°F
Dewpoint
13°C / 55°F
Humidity
73%
Altimeter
29.96" Hg
Pressure
1014.52 hPa